createdAt,value
2023-04-23T00:02:03.343Z,12.57
2023-04-23T00:04:34.101Z,12.25
2023-04-23T00:07:02.706Z,12.13
2023-04-23T00:09:32.504Z,13.57
2023-04-23T00:12:01.041Z,12.85
2023-04-23T00:14:28.261Z,13.48
2023-04-23T00:16:55.204Z,13.45
2023-04-23T00:19:21.803Z,13.48
2023-04-23T00:21:48.488Z,14.05
2023-04-23T00:24:15.144Z,12.80
2023-04-23T00:26:44.725Z,15.20
2023-04-23T00:29:11.385Z,13.25
2023-04-23T00:31:38.124Z,13.55
2023-04-23T00:34:04.780Z,13.63
2023-04-23T00:36:31.447Z,13.35
2023-04-23T00:38:58.061Z,13.65
2023-04-23T00:41:25.898Z,12.93
2023-04-23T00:43:53.352Z,13.32
2023-04-23T00:46:20.367Z,12.95
2023-04-23T00:48:47.688Z,12.60
2023-04-23T00:51:16.585Z,12.05
2023-04-23T00:53:43.342Z,13.43
2023-04-23T00:56:10.638Z,14.65
2023-04-23T00:58:37.875Z,14.15
2023-04-23T01:01:04.971Z,12.85
2023-04-23T01:03:32.821Z,13.75
2023-04-23T01:06:00.010Z,13.55
2023-04-23T01:08:27.117Z,13.18
2023-04-23T01:10:54.708Z,13.73
2023-04-23T01:13:22.629Z,14.45
2023-04-23T01:15:49.722Z,13.65
2023-04-23T01:18:16.370Z,13.82
2023-04-23T01:20:43.827Z,13.95
2023-04-23T01:23:10.697Z,13.07
2023-04-23T01:25:37.784Z,13.18
2023-04-23T01:28:06.710Z,12.98
2023-04-23T01:30:33.893Z,13.55
2023-04-23T01:33:01.856Z,12.60
2023-04-23T01:35:29.982Z,12.68
2023-04-23T01:37:59.126Z,13.20
2023-04-23T01:40:25.841Z,13.55
2023-04-23T01:42:52.717Z,14.13
2023-04-23T01:45:19.812Z,14.05
2023-04-23T01:47:48.062Z,13.27
2023-04-23T01:50:15.423Z,13.95
2023-04-23T01:52:45.846Z,12.65
2023-04-23T01:55:12.556Z,12.80
2023-04-23T01:57:39.175Z,11.77
2023-04-23T02:00:09.270Z,12.77
2023-04-23T02:02:36.254Z,14.38
2023-04-23T02:05:04.831Z,12.85
2023-04-23T02:07:32.550Z,12.13
2023-04-23T02:09:59.415Z,12.52
2023-04-23T02:12:29.020Z,14.25
2023-04-23T02:14:55.713Z,12.20
2023-04-23T02:17:25.571Z,13.25
2023-04-23T02:19:52.443Z,13.15
2023-04-23T02:22:19.082Z,12.85
2023-04-23T02:24:47.313Z,12.27
2023-04-23T02:27:14.035Z,12.50
2023-04-23T02:29:41.302Z,12.27
2023-04-23T02:32:08.880Z,13.10
2023-04-23T02:34:38.944Z,12.65
2023-04-23T02:37:05.935Z,12.40
2023-04-23T02:39:34.802Z,12.00
2023-04-23T02:42:02.074Z,14.45
2023-04-23T02:44:28.731Z,12.93
2023-04-23T02:46:56.446Z,12.77
2023-04-23T02:49:23.118Z,12.55
2023-04-23T02:51:49.816Z,13.68
2023-04-23T02:54:17.092Z,13.38
2023-04-23T02:56:43.963Z,13.38
2023-04-23T02:59:10.902Z,13.32
2023-04-23T03:01:37.522Z,13.45
2023-04-23T03:04:04.722Z,13.63
2023-04-23T03:06:35.772Z,12.90
2023-04-23T03:09:03.053Z,12.77
2023-04-23T03:11:29.729Z,13.88
2023-04-23T03:13:56.401Z,13.10
2023-04-23T03:16:23.075Z,12.73
2023-04-23T03:18:50.023Z,12.05
2023-04-23T03:21:16.672Z,14.23
2023-04-23T03:23:43.403Z,13.65
2023-04-23T03:26:11.146Z,13.52
2023-04-23T03:28:37.713Z,14.02
2023-04-23T03:31:04.571Z,14.15
2023-04-23T03:33:31.298Z,15.20
2023-04-23T03:35:58.452Z,14.50
2023-04-23T03:38:25.120Z,14.00
2023-04-23T03:40:51.770Z,14.00
2023-04-23T03:43:18.510Z,13.55
2023-04-23T03:45:45.369Z,14.05
2023-04-23T03:48:11.970Z,14.23
2023-04-23T03:50:40.631Z,14.43
2023-04-23T03:53:08.263Z,14.40
2023-04-23T03:55:34.874Z,13.90
2023-04-23T03:58:03.171Z,15.90
2023-04-23T04:00:29.956Z,15.40
2023-04-23T04:02:56.761Z,14.98
2023-04-23T04:05:23.688Z,15.50
2023-04-23T04:07:50.366Z,15.15
2023-04-23T04:10:17.080Z,14.43
2023-04-23T04:12:45.645Z,15.82
2023-04-23T04:15:12.315Z,14.32
2023-04-23T04:17:38.998Z,15.00
2023-04-23T04:20:08.548Z,15.48
2023-04-23T04:22:35.235Z,14.40
2023-04-23T04:25:01.991Z,15.60
2023-04-23T04:27:28.628Z,14.82
2023-04-23T04:29:58.260Z,14.88
2023-04-23T04:32:27.160Z,14.60
2023-04-23T04:34:54.115Z,15.15
2023-04-23T04:37:23.698Z,14.65
2023-04-23T04:39:50.340Z,14.95
2023-04-23T04:42:17.051Z,14.18
2023-04-23T04:44:43.996Z,15.15
2023-04-23T04:47:10.849Z,14.55
2023-04-23T04:49:38.406Z,15.00
2023-04-23T04:52:05.162Z,16.35
2023-04-23T04:54:31.863Z,15.57
2023-04-23T04:56:58.643Z,15.38
2023-04-23T04:59:25.287Z,15.07
2023-04-23T05:01:51.960Z,15.23
2023-04-23T05:04:18.749Z,16.77
2023-04-23T05:06:48.069Z,15.25
2023-04-23T05:09:14.698Z,14.15
2023-04-23T05:11:41.560Z,14.90
2023-04-23T05:14:08.249Z,15.25
2023-04-23T05:16:35.037Z,14.70
2023-04-23T05:19:01.701Z,13.80
2023-04-23T05:21:28.497Z,13.38
2023-04-23T05:23:55.622Z,13.73
2023-04-23T05:26:22.335Z,12.65
2023-04-23T05:28:49.131Z,12.13
2023-04-23T05:31:15.935Z,11.52
2023-04-23T05:33:49.713Z,11.88
2023-04-23T05:36:17.838Z,12.02
2023-04-23T05:38:44.527Z,12.93
2023-04-23T05:41:11.511Z,12.48
2023-04-23T05:43:38.233Z,12.05
2023-04-23T05:46:07.453Z,12.20
2023-04-23T05:48:34.786Z,12.07
2023-04-23T05:51:04.252Z,12.05
2023-04-23T05:53:30.993Z,11.95
2023-04-23T05:55:57.970Z,12.50
2023-04-23T05:58:24.600Z,11.68
2023-04-23T06:00:53.067Z,11.00
2023-04-23T06:03:20.069Z,11.35
2023-04-23T06:05:47.073Z,10.45
2023-04-23T06:08:14.013Z,13.18
2023-04-23T06:10:40.788Z,11.13
2023-04-23T06:13:09.550Z,10.88
2023-04-23T06:15:36.152Z,10.70
2023-04-23T06:18:02.909Z,10.40
2023-04-23T06:20:30.178Z,10.38
2023-04-23T06:22:56.799Z,10.02
2023-04-23T06:25:23.466Z,10.05
2023-04-23T06:27:50.112Z,10.50
2023-04-23T06:30:16.754Z,10.25
2023-04-23T06:32:43.536Z,9.60
2023-04-23T06:35:10.303Z,9.75
2023-04-23T06:37:36.954Z,9.80
2023-04-23T06:40:03.909Z,9.82
2023-04-23T06:42:30.851Z,9.93
2023-04-23T06:44:59.376Z,9.73
2023-04-23T06:47:26.096Z,9.60
2023-04-23T06:49:52.749Z,9.55
2023-04-23T06:52:19.452Z,9.05
2023-04-23T06:54:46.365Z,9.55
2023-04-23T06:57:12.987Z,9.48
2023-04-23T06:59:39.673Z,8.65
2023-04-23T07:02:06.566Z,8.23
2023-04-23T07:04:33.523Z,8.40
2023-04-23T07:07:00.539Z,9.40
2023-04-23T07:09:28.578Z,9.65
2023-04-23T07:11:55.176Z,9.20
2023-04-23T07:14:21.849Z,8.80
2023-04-23T07:16:48.497Z,8.50
2023-04-23T07:19:15.218Z,9.23
2023-04-23T07:21:42.304Z,8.23
2023-04-23T07:24:09.006Z,7.65
2023-04-23T07:26:36.308Z,8.10
2023-04-23T07:29:04.858Z,7.88
2023-04-23T07:31:31.525Z,9.63
2023-04-23T07:33:58.198Z,7.95
2023-04-23T07:36:24.935Z,7.72
2023-04-23T07:38:51.570Z,7.50
2023-04-23T07:41:18.368Z,7.43
2023-04-23T07:43:47.995Z,6.88
2023-04-23T07:46:17.194Z,5.75
2023-04-23T07:48:46.504Z,6.30
2023-04-23T07:51:13.158Z,6.30
2023-04-23T07:53:39.917Z,5.35
2023-04-23T07:56:06.710Z,5.00
2023-04-23T07:58:33.506Z,5.95
2023-04-23T08:01:00.110Z,5.78
2023-04-23T08:03:29.064Z,4.97
2023-04-23T08:05:56.958Z,4.80
2023-04-23T08:08:23.549Z,5.07
2023-04-23T08:10:50.224Z,4.60
2023-04-23T08:13:16.924Z,4.25
2023-04-23T08:15:43.604Z,4.20
2023-04-23T08:18:10.336Z,4.40
2023-04-23T08:20:37.120Z,4.70
2023-04-23T08:23:04.786Z,4.78
2023-04-23T08:25:32.798Z,5.03
2023-04-23T08:27:59.601Z,4.68
2023-04-23T08:30:26.385Z,4.72
2023-04-23T08:32:54.005Z,4.43
2023-04-23T08:35:21.344Z,4.30
2023-04-23T08:37:47.880Z,4.32
2023-04-23T08:40:14.919Z,4.40
2023-04-23T08:42:53.484Z,4.82
2023-04-23T08:45:22.218Z,4.30
2023-04-23T08:47:49.164Z,4.38
2023-04-23T08:50:20.518Z,4.00
2023-04-23T08:52:51.571Z,3.92
2023-04-23T08:55:18.974Z,4.78
2023-04-23T08:57:47.028Z,4.90
2023-04-23T09:00:15.827Z,5.33
2023-04-23T09:02:47.053Z,4.60
2023-04-23T09:05:14.530Z,5.10
2023-04-23T09:07:41.894Z,4.73
2023-04-23T09:10:11.728Z,4.55
2023-04-23T09:12:43.429Z,4.90
2023-04-23T09:15:11.083Z,5.35
2023-04-23T09:17:44.028Z,5.68
2023-04-23T09:20:11.960Z,6.57
2023-04-23T09:22:56.835Z,5.30
2023-04-23T09:25:24.511Z,5.20
2023-04-23T09:27:53.203Z,5.00
2023-04-23T09:30:20.263Z,5.18
2023-04-23T09:32:48.078Z,4.90
2023-04-23T09:35:17.082Z,4.82
2023-04-23T09:37:49.120Z,5.25
2023-04-23T09:40:21.051Z,4.70
2023-04-23T09:42:57.568Z,4.20
2023-04-23T09:45:25.910Z,3.75
2023-04-23T09:47:57.713Z,3.78
2023-04-23T09:50:36.974Z,3.80
2023-04-23T09:53:04.828Z,4.33
2023-04-23T09:55:40.854Z,3.83
2023-04-23T09:58:15.780Z,4.20
2023-04-23T10:00:45.785Z,3.67
2023-04-23T10:03:12.893Z,3.75
2023-04-23T10:08:14.074Z,3.80
2023-04-23T10:10:55.079Z,3.78
2023-04-23T10:13:28.268Z,3.88
2023-04-23T10:15:55.204Z,3.70
2023-04-23T10:18:24.210Z,3.50
2023-04-23T10:20:52.427Z,4.03
2023-04-23T10:23:23.691Z,3.53
2023-04-23T10:26:00.393Z,3.35
2023-04-23T10:28:33.143Z,3.53
2023-04-23T10:31:04.072Z,3.63
2023-04-23T10:33:39.780Z,3.47
2023-04-23T10:36:12.968Z,3.72
2023-04-23T10:38:54.872Z,3.33
2023-04-23T10:41:28.979Z,3.47
2023-04-23T10:43:55.772Z,3.33
2023-04-23T10:46:33.244Z,3.28
2023-04-23T10:49:16.412Z,3.40
2023-04-23T10:52:17.684Z,3.40
2023-04-23T10:54:34.718Z,3.10
2023-04-23T10:57:03.816Z,3.63
2023-04-23T10:59:32.219Z,3.30
2023-04-23T11:02:07.321Z,3.58
2023-04-23T11:04:35.837Z,3.80
2023-04-23T11:07:10.469Z,3.88
2023-04-23T11:09:53.732Z,3.30
2023-04-23T11:12:27.073Z,3.53
2023-04-23T11:14:55.266Z,3.10
2023-04-23T11:17:34.154Z,3.60
2023-04-23T11:20:14.183Z,4.25
2023-04-23T11:22:44.953Z,3.90
2023-04-23T11:25:19.273Z,4.50
2023-04-23T11:27:47.238Z,3.90
2023-04-23T11:30:25.589Z,3.97
2023-04-23T11:32:54.618Z,3.90
2023-04-23T11:35:24.714Z,3.90
2023-04-23T11:37:51.393Z,4.23
2023-04-23T11:40:19.845Z,3.55
2023-04-23T11:42:51.670Z,4.50
2023-04-23T11:45:23.260Z,4.20
2023-04-23T11:47:57.133Z,3.92
2023-04-23T11:50:25.286Z,4.35
2023-04-23T11:52:52.938Z,4.03
2023-04-23T11:55:20.779Z,3.67
2023-04-23T11:57:49.928Z,4.33
2023-04-23T12:00:19.559Z,4.53
2023-04-23T12:03:03.488Z,4.50
2023-04-23T12:05:33.688Z,3.92
2023-04-23T12:08:17.348Z,4.20
2023-04-23T12:10:48.151Z,4.72
2023-04-23T12:13:21.118Z,4.68
2023-04-23T12:15:52.683Z,4.57
2023-04-23T12:18:19.769Z,4.10
2023-04-23T12:20:46.625Z,3.88
2023-04-23T12:23:13.265Z,3.78
2023-04-23T12:25:41.022Z,4.70
2023-04-23T12:28:08.002Z,3.90
2023-04-23T12:30:43.404Z,3.95
2023-04-23T12:33:12.085Z,3.95
2023-04-23T12:35:42.521Z,4.22
2023-04-23T12:38:25.695Z,4.20
2023-04-23T12:40:57.137Z,4.18
2023-04-23T12:43:25.582Z,4.43
2023-04-23T12:45:55.887Z,4.28
2023-04-23T12:48:22.528Z,4.35
2023-04-23T12:50:49.348Z,4.93
2023-04-23T12:53:16.083Z,4.65
2023-04-23T12:55:44.421Z,4.60
2023-04-23T12:58:11.198Z,4.70
2023-04-23T13:00:37.831Z,4.50
2023-04-23T13:03:04.933Z,4.63
2023-04-23T13:05:31.511Z,4.40
2023-04-23T13:07:59.349Z,4.37
2023-04-23T13:10:26.115Z,4.23
2023-04-23T13:12:52.870Z,4.40
2023-04-23T13:15:20.288Z,4.83
2023-04-23T13:17:47.303Z,3.92
2023-04-23T13:20:13.990Z,5.07
2023-04-23T13:22:40.747Z,4.60
2023-04-23T13:25:07.587Z,4.50
2023-04-23T13:27:34.235Z,4.20
2023-04-23T13:30:01.523Z,3.67
2023-04-23T13:32:32.123Z,4.00
2023-04-23T13:35:01.887Z,3.60
2023-04-23T13:37:30.289Z,3.17
2023-04-23T13:39:57.095Z,3.40
2023-04-23T13:42:23.780Z,3.40
2023-04-23T13:44:50.742Z,3.35
2023-04-23T13:47:20.076Z,3.92
2023-04-23T13:49:48.043Z,5.27
2023-04-23T13:52:14.978Z,5.00
2023-04-23T13:54:42.310Z,4.97
2023-04-23T13:57:12.033Z,4.50
2023-04-23T13:59:38.674Z,3.95
2023-04-23T14:02:08.104Z,4.30
2023-04-23T14:04:34.756Z,3.97
2023-04-23T14:07:01.445Z,4.60
2023-04-23T14:09:29.974Z,4.87
2023-04-23T14:11:56.970Z,3.67
2023-04-23T14:14:23.619Z,4.80
2023-04-23T14:16:50.431Z,5.80
2023-04-23T14:19:17.177Z,5.47
2023-04-23T14:21:44.113Z,4.60
2023-04-23T14:24:27.630Z,5.57
2023-04-23T14:26:54.434Z,6.00
2023-04-23T14:29:32.832Z,10.95
2023-04-23T14:31:59.492Z,5.13
2023-04-23T14:34:26.154Z,6.68
2023-04-23T14:36:53.504Z,5.10
2023-04-23T14:39:22.688Z,9.35
2023-04-23T14:41:49.343Z,4.70
2023-04-23T14:44:15.940Z,6.22
2023-04-23T14:46:42.630Z,6.43
2023-04-23T14:49:09.215Z,4.38
2023-04-23T14:51:37.504Z,4.80
2023-04-23T14:54:05.048Z,6.65
2023-04-23T14:56:31.770Z,7.97
2023-04-23T14:58:58.398Z,5.82
2023-04-23T15:01:25.077Z,3.97
2023-04-23T15:03:53.567Z,5.07
2023-04-23T15:06:23.441Z,3.67
2023-04-23T15:08:50.114Z,6.53
2023-04-23T15:11:16.853Z,4.80
2023-04-23T15:14:03.893Z,6.87
2023-04-23T15:19:06.387Z,4.22
2023-04-23T15:21:33.400Z,4.47
2023-04-23T15:24:00.022Z,4.30
2023-04-23T15:33:47.893Z,4.10
2023-04-23T15:36:14.584Z,6.75
2023-04-23T15:38:41.457Z,5.72
2023-04-23T15:41:11.390Z,4.78
2023-04-23T15:43:38.011Z,5.13
2023-04-23T15:46:04.706Z,4.25
2023-04-23T15:48:31.493Z,4.93
2023-04-23T15:50:58.370Z,4.00
2023-04-23T15:53:25.092Z,4.68
2023-04-23T15:55:55.029Z,5.25
2023-04-23T15:58:24.490Z,6.47
2023-04-23T16:00:51.161Z,4.10
2023-04-23T16:03:18.029Z,5.47
2023-04-23T16:05:48.165Z,4.72
2023-04-23T16:08:16.365Z,4.43
2023-04-23T16:10:43.170Z,4.63
2023-04-23T16:13:12.681Z,5.97
2023-04-23T16:15:39.299Z,4.07
2023-04-23T16:18:06.601Z,4.78
2023-04-23T16:20:33.508Z,3.90
2023-04-23T16:23:00.249Z,4.35
2023-04-23T16:25:27.019Z,4.07
2023-04-23T16:27:54.033Z,3.15
2023-04-23T16:30:21.262Z,4.38
2023-04-23T16:32:47.946Z,3.72
2023-04-23T16:35:14.626Z,3.42
2023-04-23T16:37:41.404Z,4.30
2023-04-23T16:40:09.164Z,3.63
2023-04-23T16:42:36.058Z,3.50
2023-04-23T16:45:03.083Z,4.43
2023-04-23T16:47:29.816Z,3.55
2023-04-23T16:49:56.633Z,3.88
2023-04-23T16:52:25.459Z,3.90
2023-04-23T16:54:52.041Z,3.85
2023-04-23T16:57:18.917Z,3.92
2023-04-23T16:59:45.687Z,3.63
2023-04-23T17:02:12.582Z,4.03
2023-04-23T17:04:39.742Z,3.65
2023-04-23T17:07:07.594Z,4.22
2023-04-23T17:09:34.935Z,4.10
2023-04-23T17:12:02.248Z,3.80
2023-04-23T17:14:31.129Z,3.65
2023-04-23T17:16:57.843Z,3.58
2023-04-23T17:19:24.524Z,3.53
2023-04-23T17:21:53.485Z,3.50
2023-04-23T17:24:22.413Z,3.92
2023-04-23T17:26:51.637Z,4.03
2023-04-23T17:29:18.317Z,3.75
2023-04-23T17:31:45.393Z,3.85
2023-04-23T17:34:12.222Z,4.47
2023-04-23T17:36:38.987Z,3.58
2023-04-23T17:39:05.816Z,3.95
2023-04-23T17:41:32.584Z,4.25
2023-04-23T17:43:59.268Z,4.05
2023-04-23T17:46:26.022Z,4.35
2023-04-23T17:48:52.762Z,4.05
2023-04-23T17:51:19.509Z,5.05
2023-04-23T17:53:50.604Z,4.75
2023-04-23T17:56:17.282Z,4.10
2023-04-23T17:58:44.027Z,4.47
2023-04-23T18:01:10.841Z,4.13
2023-04-23T18:03:38.368Z,3.85
2023-04-23T18:06:05.638Z,4.47
2023-04-23T18:08:32.350Z,4.20
2023-04-23T18:10:59.557Z,4.25
2023-04-23T18:13:26.470Z,4.03
2023-04-23T18:15:53.184Z,3.72
2023-04-23T18:18:21.725Z,3.90
2023-04-23T18:20:49.294Z,4.57
2023-04-23T18:23:16.138Z,3.97
2023-04-23T18:25:42.918Z,4.28
2023-04-23T18:28:09.775Z,4.18
2023-04-23T18:30:39.437Z,4.63
2023-04-23T18:33:15.333Z,3.88
2023-04-23T18:35:45.320Z,4.07
2023-04-23T18:38:25.753Z,3.60
2023-04-23T18:40:52.474Z,4.25
2023-04-23T18:43:19.157Z,3.95
2023-04-23T18:45:47.041Z,3.78
2023-04-23T18:48:35.462Z,3.75
2023-04-23T18:51:13.513Z,4.45
2023-04-23T18:53:40.307Z,3.63
2023-04-23T18:56:10.035Z,3.90
2023-04-23T18:58:36.835Z,3.65
2023-04-23T19:01:03.905Z,4.18
2023-04-23T19:03:31.350Z,3.92
2023-04-23T19:05:58.240Z,4.82
2023-04-23T19:08:30.727Z,3.45
2023-04-23T19:10:57.543Z,3.50
2023-04-23T19:13:24.484Z,3.63
2023-04-23T19:15:51.592Z,4.20
2023-04-23T19:18:18.843Z,3.58
2023-04-23T19:20:45.545Z,4.00
2023-04-23T19:23:12.223Z,3.53
2023-04-23T19:25:38.889Z,3.92
2023-04-23T19:28:05.528Z,3.67
2023-04-23T19:30:32.478Z,3.65
2023-04-23T19:32:59.345Z,3.72
2023-04-23T19:35:26.572Z,3.67
2023-04-23T19:37:53.304Z,3.92
2023-04-23T19:40:19.986Z,4.03
2023-04-23T19:42:46.661Z,4.15
2023-04-23T19:45:15.577Z,4.05
2023-04-23T19:47:42.412Z,4.20
2023-04-23T19:50:14.042Z,3.88
2023-04-23T19:52:41.441Z,4.00
2023-04-23T19:55:10.320Z,4.15
2023-04-23T19:57:37.303Z,3.97
2023-04-23T20:00:06.624Z,4.03
2023-04-23T20:02:35.136Z,3.90
2023-04-23T20:05:02.996Z,4.35
2023-04-23T20:07:29.717Z,4.20
2023-04-23T20:09:56.373Z,3.83
2023-04-23T20:12:24.690Z,3.85
2023-04-23T20:14:51.801Z,4.05
2023-04-23T20:17:20.208Z,3.80
2023-04-23T20:19:46.884Z,3.65
2023-04-23T20:22:13.619Z,4.35
2023-04-23T20:24:42.767Z,3.95
2023-04-23T20:27:09.396Z,3.63
2023-04-23T20:29:36.087Z,3.72
2023-04-23T20:32:02.760Z,3.90
2023-04-23T20:34:29.581Z,3.95
2023-04-23T20:36:58.914Z,3.88
2023-04-23T20:39:25.661Z,4.20
2023-04-23T20:41:52.629Z,3.90
2023-04-23T20:44:22.699Z,4.40
2023-04-23T20:46:53.002Z,3.97
2023-04-23T20:49:20.075Z,3.92
2023-04-23T20:51:46.863Z,3.55
2023-04-23T20:54:13.546Z,4.00
2023-04-23T20:56:40.331Z,3.83
2023-04-23T20:59:07.040Z,3.80
2023-04-23T21:01:33.874Z,4.13
2023-04-23T21:04:05.977Z,3.55
2023-04-23T21:06:33.521Z,3.83
2023-04-23T21:09:00.191Z,4.03
2023-04-23T21:11:27.901Z,3.88
2023-04-23T21:14:00.228Z,3.80
2023-04-23T21:16:27.593Z,3.30
2023-04-23T21:18:54.250Z,4.22
2023-04-23T21:21:27.076Z,4.20
2023-04-23T21:23:53.740Z,4.65
2023-04-23T21:26:21.113Z,3.80
2023-04-23T21:28:47.781Z,4.00
2023-04-23T21:31:29.756Z,3.35
2023-04-23T21:33:56.941Z,3.65
2023-04-23T21:36:23.745Z,3.55
2023-04-23T21:38:50.557Z,3.58
2023-04-23T21:41:17.667Z,4.03
2023-04-23T21:43:44.418Z,3.55
2023-04-23T21:46:11.143Z,3.13
2023-04-23T21:48:37.875Z,3.70
2023-04-23T21:51:05.160Z,3.70
2023-04-23T21:53:31.754Z,3.95
2023-04-23T21:56:00.828Z,3.42
2023-04-23T21:58:28.039Z,3.85
2023-04-23T22:00:55.357Z,3.22
2023-04-23T22:03:30.863Z,3.22
2023-04-23T22:06:05.213Z,4.60
2023-04-23T22:08:33.079Z,3.35
2023-04-23T22:10:59.955Z,3.65
2023-04-23T22:13:26.846Z,4.07
2023-04-23T22:15:53.595Z,3.30
2023-04-23T22:18:20.665Z,3.88
2023-04-23T22:20:49.572Z,3.88
2023-04-23T22:23:16.434Z,3.65
2023-04-23T22:25:43.159Z,3.65
2023-04-23T22:28:09.783Z,4.00
2023-04-23T22:30:36.738Z,3.35
2023-04-23T22:33:04.179Z,4.00
2023-04-23T22:35:31.880Z,3.88
2023-04-23T22:37:58.707Z,3.75
2023-04-23T22:40:25.356Z,3.80
2023-04-23T22:42:52.019Z,3.75
2023-04-23T22:45:18.809Z,3.80
2023-04-23T22:47:45.516Z,4.05
2023-04-23T22:50:12.358Z,4.22
2023-04-23T22:52:39.053Z,3.72
2023-04-23T22:55:06.260Z,4.07
2023-04-23T22:57:33.017Z,3.83
2023-04-23T23:00:00.731Z,3.08
2023-04-23T23:02:27.485Z,3.90
2023-04-23T23:04:54.786Z,3.67
2023-04-23T23:07:21.711Z,3.58
2023-04-23T23:09:48.360Z,3.53
2023-04-23T23:12:15.043Z,3.40
2023-04-23T23:14:41.783Z,2.95
2023-04-23T23:17:08.459Z,4.10
2023-04-23T23:19:35.102Z,3.72
2023-04-23T23:22:01.851Z,3.88
2023-04-23T23:24:28.418Z,3.60
2023-04-23T23:26:55.050Z,3.70
2023-04-23T23:29:21.692Z,3.95
2023-04-23T23:31:48.506Z,3.60
2023-04-23T23:34:15.376Z,3.38
2023-04-23T23:36:42.096Z,3.58
2023-04-23T23:39:08.801Z,3.85
2023-04-23T23:41:35.356Z,4.20
2023-04-23T23:44:04.226Z,3.75
2023-04-23T23:46:30.888Z,3.50
2023-04-23T23:48:57.526Z,3.90
2023-04-23T23:51:24.236Z,3.42
2023-04-23T23:53:50.903Z,4.35
2023-04-23T23:56:17.639Z,3.47
2023-04-23T23:58:44.314Z,3.67
